Time;durP1;ratioP1;P1;durP2;ratioP2;P2;SDS_P1;SDS_P2;PMS_P1;PMS_P2;Temp;Humidity;BMP_temperature;BMP_pressure;BME280_temperature;BME280_humidity;BME280_pressure;Samples;Min_cycle;Max_cycle;Signal;HPM_P1;HPM_P2
2022/11/25 00:01:54;;;;;;;6.03;4.28;;;;;;;4.10;100.00;92915.94;5075994;28;20082;-71
2022/11/25 00:04:21;;;;;;;6.03;4.20;;;;;;;3.76;100.00;92881.72;5078336;28;20388;-71
2022/11/25 00:06:47;;;;;;;5.38;4.13;;;;;;;4.07;100.00;92921.41;5077271;28;20107;-71
2022/11/25 00:09:15;;;;;;;6.07;4.50;;;;;;;4.16;100.00;92922.09;5081912;28;20048;-71
2022/11/25 00:11:42;;;;;;;5.95;4.35;;;;;;;4.03;100.00;92910.78;5083460;28;20052;-72
2022/11/25 00:14:13;;;;;;;5.70;4.15;;;;;;;4.12;100.00;92906.41;5077312;28;20459;-72
2022/11/25 00:16:39;;;;;;;7.20;4.25;;;;;;;4.35;100.00;92913.91;5077273;28;20048;-72
2022/11/25 00:19:06;;;;;;;6.25;4.82;;;;;;;4.44;100.00;92912.03;5082447;28;20048;-72
2022/11/25 00:21:35;;;;;;;6.20;4.28;;;;;;;4.58;100.00;92909.66;5083757;28;20048;-72
2022/11/25 00:24:04;;;;;;;6.10;4.63;;;;;;;4.68;100.00;92913.47;5084036;28;20052;-72
2022/11/25 00:26:33;;;;;;;5.63;4.13;;;;;;;4.68;100.00;92905.06;5076610;28;20053;-72
2022/11/25 00:29:01;;;;;;;6.35;4.40;;;;;;;4.79;100.00;92912.22;5083308;28;20044;-72
2022/11/25 00:31:29;;;;;;;7.93;4.03;;;;;;;4.85;100.00;92918.31;5082166;28;20493;-72
2022/11/25 00:33:56;;;;;;;7.90;4.97;;;;;;;4.80;100.00;92918.06;5073732;28;20054;-72
2022/11/25 00:36:25;;;;;;;6.35;5.00;;;;;;;4.85;100.00;92912.47;5088963;28;20052;-72
2022/11/25 00:38:54;;;;;;;7.35;4.32;;;;;;;4.87;100.00;92928.34;5110417;28;20047;-72
2022/11/25 00:46:53;;;;;;;7.22;4.38;;;;;;;4.97;100.00;92910.22;5110298;28;20180;-72
2022/11/25 00:49:20;;;;;;;9.65;5.28;;;;;;;4.95;100.00;92921.38;5110062;28;20063;-72
2022/11/25 00:51:46;;;;;;;7.78;4.53;;;;;;;4.93;100.00;92925.84;5110333;28;20116;-72
2022/11/25 00:54:13;;;;;;;7.18;4.03;;;;;;;4.81;100.00;92924.75;5094928;28;20061;-72
2022/11/25 00:56:40;;;;;;;6.53;4.40;;;;;;;4.91;100.00;92919.38;5097293;28;20055;-72
2022/11/25 00:59:09;;;;;;;4.88;3.95;;;;;;;4.86;100.00;92934.41;5109941;28;20561;-72
2022/11/25 01:01:36;;;;;;;5.72;3.88;;;;;;;4.82;100.00;92931.44;5110215;28;20052;-72
2022/11/25 01:04:03;;;;;;;6.88;4.18;;;;;;;4.73;100.00;92933.31;5110011;28;20048;-72
2022/11/25 01:06:30;;;;;;;7.22;4.18;;;;;;;4.62;100.00;92909.09;5099247;28;20100;-72
2022/11/25 01:08:57;;;;;;;8.63;5.15;;;;;;;4.79;100.00;92935.13;5106219;28;20179;-73
2022/11/25 01:11:24;;;;;;;4.70;3.50;;;;;;;4.53;100.00;92933.06;5109458;28;20119;-73
2022/11/25 01:13:53;;;;;;;6.35;3.67;;;;;;;4.33;100.00;92900.59;5109869;28;20082;-73
2022/11/25 01:16:22;;;;;;;5.10;3.58;;;;;;;4.35;100.00;92938.56;5108624;28;20047;-72
2022/11/25 01:18:52;;;;;;;5.70;3.75;;;;;;;4.27;100.00;92941.97;5087250;28;20494;-73
2022/11/25 01:21:21;;;;;;;5.65;3.78;;;;;;;4.10;100.00;92954.88;5072964;28;20094;-73
2022/11/25 01:23:48;;;;;;;5.32;4.10;;;;;;;3.88;100.00;92939.53;5068923;28;20452;-73
2022/11/25 01:26:18;;;;;;;5.70;3.70;;;;;;;3.84;100.00;92943.38;5069005;28;20048;-72
2022/11/25 01:28:46;;;;;;;5.25;3.80;;;;;;;3.93;100.00;92936.47;5068879;28;20129;-72
2022/11/25 01:31:15;;;;;;;5.18;3.83;;;;;;;4.02;100.00;92934.63;5069069;28;20048;-72
2022/11/25 01:33:43;;;;;;;5.72;3.35;;;;;;;3.73;100.00;92929.38;5068863;28;20528;-72
2022/11/25 01:36:13;;;;;;;5.88;3.53;;;;;;;3.76;100.00;92925.69;5068911;28;20114;-72
2022/11/25 01:38:40;;;;;;;4.93;3.50;;;;;;;3.94;100.00;92922.78;5084480;28;20071;-72
2022/11/25 01:41:08;;;;;;;5.57;4.07;;;;;;;4.14;100.00;92914.66;5096053;28;20060;-72
2022/11/25 01:43:35;;;;;;;5.25;4.07;;;;;;;4.29;100.00;92919.69;5068448;28;20056;-72
2022/11/25 01:46:09;;;;;;;4.63;3.38;;;;;;;4.43;100.00;92915.56;5068356;28;20053;-72
2022/11/25 01:48:41;;;;;;;5.78;4.40;;;;;;;4.53;100.00;92912.72;5068477;28;20037;-72
2022/11/25 01:51:21;;;;;;;5.10;3.85;;;;;;;4.32;100.00;92916.81;5068265;28;20052;-72
2022/11/25 01:53:48;;;;;;;5.47;3.85;;;;;;;4.38;100.00;92911.00;5070121;28;20070;-72
2022/11/25 01:56:16;;;;;;;4.85;3.67;;;;;;;4.29;100.00;92914.63;5068453;28;20098;-72
2022/11/25 01:58:45;;;;;;;4.78;3.65;;;;;;;4.26;100.00;92917.53;5068631;28;20048;-72
2022/11/25 02:01:12;;;;;;;4.93;3.53;;;;;;;4.14;100.00;92923.06;5068741;28;20456;-73
2022/11/25 02:03:42;;;;;;;5.95;3.90;;;;;;;4.05;100.00;92921.56;5068399;28;20052;-73
2022/11/25 02:06:16;;;;;;;4.90;3.42;;;;;;;4.12;100.00;92914.03;5066730;28;20064;-72
2022/11/25 02:08:48;;;;;;;6.65;4.20;;;;;;;4.12;100.00;92914.81;5066580;28;20049;-72
2022/11/25 02:11:16;;;;;;;6.72;4.07;;;;;;;4.07;100.00;92918.88;5068210;28;20505;-72
2022/11/25 02:13:44;;;;;;;5.85;4.13;;;;;;;4.06;100.00;92910.44;5068173;28;21397;-72
2022/11/25 02:16:11;;;;;;;7.78;4.80;;;;;;;4.14;100.00;92932.44;5068433;28;20514;-72
2022/11/25 02:18:38;;;;;;;6.57;4.22;;;;;;;4.12;100.00;92932.59;5068389;28;20037;-73
2022/11/25 02:21:04;;;;;;;5.95;4.30;;;;;;;4.16;100.00;92938.13;5067996;28;20113;-74
2022/11/25 02:23:39;;;;;;;8.80;5.32;;;;;;;4.01;100.00;92940.69;5068383;28;20040;-73
2022/11/25 02:26:08;;;;;;;6.57;4.22;;;;;;;4.05;100.00;92930.94;5068228;28;20052;-73
2022/11/25 02:28:35;;;;;;;5.85;4.47;;;;;;;3.97;100.00;92924.19;5083791;28;20051;-72
2022/11/25 02:31:01;;;;;;;8.02;4.53;;;;;;;3.87;100.00;92922.72;5109160;28;20132;-71
2022/11/25 02:33:28;;;;;;;5.78;4.25;;;;;;;3.85;100.00;92922.09;5075907;28;20049;-72
2022/11/25 02:35:56;;;;;;;6.60;4.43;;;;;;;3.81;100.00;92925.97;5072168;28;20477;-74
2022/11/25 02:38:30;;;;;;;6.53;4.32;;;;;;;3.83;100.00;92924.03;5071286;28;20052;-72
2022/11/25 02:41:03;;;;;;;10.25;6.15;;;;;;;3.84;100.00;92927.38;5071847;28;20097;-74
2022/11/25 02:43:31;;;;;;;5.90;4.55;;;;;;;3.91;100.00;92907.91;5071575;28;21132;-74
2022/11/25 02:46:00;;;;;;;6.60;4.50;;;;;;;4.04;100.00;92927.63;5071514;28;20106;-74
2022/11/25 02:48:29;;;;;;;8.02;5.30;;;;;;;3.93;100.00;92916.13;5071599;28;20074;-74
2022/11/25 02:50:56;;;;;;;7.95;4.70;;;;;;;3.83;100.00;92924.03;5071687;28;20048;-73
2022/11/25 02:53:23;;;;;;;7.78;4.50;;;;;;;3.80;100.00;92934.53;5071742;28;20459;-73
2022/11/25 02:55:50;;;;;;;12.77;4.68;;;;;;;3.80;100.00;92926.91;5071319;28;20044;-73
2022/11/25 02:58:17;;;;;;;6.82;4.07;;;;;;;3.96;100.00;92927.72;5073953;28;20088;-72
2022/11/25 03:00:46;;;;;;;10.27;6.28;;;;;;;3.92;100.00;92931.56;5112156;28;20059;-71
2022/11/25 03:03:13;;;;;;;7.38;5.55;;;;;;;4.04;100.00;92926.81;5112561;28;20104;-71
2022/11/25 03:05:39;;;;;;;7.18;5.47;;;;;;;4.10;100.00;92931.22;5084120;28;20121;-71
2022/11/25 03:08:07;;;;;;;10.40;5.40;;;;;;;4.14;100.00;92929.91;5112248;28;20063;-71
2022/11/25 03:10:34;;;;;;;9.43;5.95;;;;;;;4.18;100.00;92926.03;5111147;28;20562;-72
2022/11/25 03:13:01;;;;;;;7.93;5.13;;;;;;;4.07;100.00;92939.19;5112327;28;20047;-71
2022/11/25 03:15:28;;;;;;;11.63;6.80;;;;;;;3.93;100.00;92941.56;5112230;28;20055;-72
2022/11/25 03:17:56;;;;;;;10.88;7.05;;;;;;;3.96;100.00;92941.22;5112236;28;20052;-71
2022/11/25 03:20:23;;;;;;;12.30;7.55;;;;;;;3.99;100.00;92932.44;5111641;28;20083;-71
2022/11/25 03:22:50;;;;;;;12.68;7.47;;;;;;;4.21;100.00;92953.63;5111412;28;20053;-71
2022/11/25 03:25:17;;;;;;;9.88;6.88;;;;;;;4.23;100.00;92928.84;5111613;28;20048;-71
2022/11/25 03:27:44;;;;;;;5.75;4.85;;;;;;;4.36;100.00;92938.34;5111512;28;20092;-71
2022/11/25 03:30:17;;;;;;;5.47;3.90;;;;;;;4.25;100.00;92959.94;5111807;28;20044;-71
2022/11/25 03:32:44;;;;;;;5.65;4.22;;;;;;;4.15;100.00;92959.44;5111771;28;20443;-71
2022/11/25 03:35:12;;;;;;;8.13;5.93;;;;;;;4.10;100.00;92941.38;5111908;28;20402;-71
2022/11/25 03:37:39;;;;;;;6.82;4.90;;;;;;;4.15;100.00;92956.88;5111790;28;20044;-72
2022/11/25 03:40:07;;;;;;;7.72;5.57;;;;;;;4.16;100.00;92968.63;5111579;28;20564;-71
2022/11/25 03:42:34;;;;;;;4.78;2.95;;;;;;;4.03;100.00;92974.31;5111680;28;20052;-71
2022/11/25 03:45:01;;;;;;;8.18;4.53;;;;;;;3.96;100.00;92968.38;5110825;28;20047;-71
2022/11/25 03:47:28;;;;;;;7.88;4.95;;;;;;;3.96;100.00;92973.44;5111356;28;20111;-71
2022/11/25 03:49:55;;;;;;;6.45;4.32;;;;;;;3.85;100.00;92965.28;5111595;28;20089;-71
2022/11/25 03:52:23;;;;;;;6.13;4.28;;;;;;;3.90;100.00;92969.06;5111263;28;20493;-71
2022/11/25 03:54:50;;;;;;;3.50;2.60;;;;;;;3.44;100.00;92936.00;5086066;28;20052;-71
2022/11/25 03:57:17;;;;;;;3.25;2.50;;;;;;;3.46;100.00;92972.16;5107722;28;20097;-70
2022/11/25 03:59:44;;;;;;;5.53;2.97;;;;;;;3.47;100.00;92973.72;5110897;28;20085;-71
2022/11/25 04:02:10;;;;;;;4.80;2.78;;;;;;;3.41;100.00;92964.25;5110998;28;20501;-71
2022/11/25 04:04:37;;;;;;;5.05;3.15;;;;;;;3.39;100.00;92973.00;5111110;28;20040;-71
2022/11/25 04:07:04;;;;;;;4.40;3.80;;;;;;;3.41;100.00;92974.41;5110725;28;20580;-71
2022/11/25 04:09:32;;;;;;;3.28;2.13;;;;;;;3.34;100.00;92987.00;5111175;28;20039;-71
2022/11/25 04:14:42;;;;;;;3.28;2.47;;;;;;;3.38;100.00;92977.28;5110768;28;20062;-71
2022/11/25 04:17:09;;;;;;;2.85;2.20;;;;;;;3.37;100.00;92982.56;5110659;28;20055;-71
2022/11/25 04:19:36;;;;;;;3.38;2.00;;;;;;;3.34;100.00;92983.69;5110981;27;20043;-71
2022/11/25 04:22:03;;;;;;;4.28;2.70;;;;;;;3.47;100.00;92983.09;5110879;28;20051;-71
2022/11/25 04:24:29;;;;;;;3.47;2.75;;;;;;;3.46;100.00;92987.41;5110888;28;20119;-71
2022/11/25 04:26:57;;;;;;;11.27;7.38;;;;;;;3.55;100.00;92987.31;5110951;28;20135;-71
2022/11/25 04:29:24;;;;;;;10.60;7.03;;;;;;;3.63;100.00;92986.47;5110119;28;20085;-71
2022/11/25 04:31:51;;;;;;;44.05;23.40;;;;;;;3.65;100.00;92995.50;5110762;28;20043;-71
2022/11/25 04:34:18;;;;;;;21.42;13.98;;;;;;;3.73;100.00;93005.59;5110666;28;20462;-71
2022/11/25 04:36:44;;;;;;;6.18;5.20;;;;;;;3.78;100.00;93002.53;5110048;28;20088;-72
2022/11/25 04:39:11;;;;;;;4.22;3.70;;;;;;;3.77;100.00;93008.56;5094479;28;20571;-71
2022/11/25 04:41:38;;;;;;;10.95;6.60;;;;;;;3.82;100.00;93010.59;5091198;28;20047;-71
2022/11/25 04:44:06;;;;;;;7.85;5.20;;;;;;;3.97;100.00;93011.41;5088797;28;20052;-71
2022/11/25 04:46:36;;;;;;;7.05;4.63;;;;;;;4.00;100.00;93023.78;5088568;28;20051;-72
2022/11/25 04:49:04;;;;;;;6.80;5.07;;;;;;;4.11;100.00;93035.25;5087836;28;20052;-72
2022/11/25 04:51:30;;;;;;;7.93;4.22;;;;;;;4.10;100.00;93037.97;5092251;28;20481;-71
2022/11/25 04:53:57;;;;;;;7.88;3.95;;;;;;;3.97;100.00;93044.44;5088007;28;20089;-71
2022/11/25 04:56:24;;;;;;;5.72;3.30;;;;;;;3.88;100.00;93037.84;5088480;28;20117;-71
2022/11/25 05:01:36;;;;;;;6.45;3.83;;;;;;;3.82;100.00;93054.59;5088919;28;20241;-71
2022/11/25 05:04:03;;;;;;;8.40;4.80;;;;;;;3.94;100.00;93059.25;5089815;28;20048;-71
2022/11/25 05:06:30;;;;;;;7.05;3.53;;;;;;;3.61;100.00;93060.28;5090105;28;20047;-71
2022/11/25 05:08:56;;;;;;;6.82;3.25;;;;;;;3.68;100.00;93062.94;5090717;28;20097;-72
2022/11/25 05:11:23;;;;;;;7.00;2.85;;;;;;;3.79;100.00;93074.47;5089213;28;20452;-71
2022/11/25 05:13:50;;;;;;;11.65;3.67;;;;;;;3.44;100.00;93078.22;5090437;28;20506;-71
2022/11/25 05:16:16;;;;;;;8.60;3.40;;;;;;;3.38;100.00;93073.00;5089391;28;20387;-71
2022/11/25 05:18:44;;;;;;;8.98;3.38;;;;;;;3.40;100.00;93060.91;5088940;28;20048;-71
2022/11/25 05:21:11;;;;;;;5.38;2.97;;;;;;;3.60;100.00;93079.84;5090904;28;20463;-71
2022/11/25 05:23:38;;;;;;;2.92;2.20;;;;;;;3.36;100.00;93085.84;5088016;28;20109;-71
2022/11/25 05:26:05;;;;;;;3.60;2.40;;;;;;;3.44;100.00;93095.97;5092764;28;20047;-71
2022/11/25 05:28:32;;;;;;;3.10;2.30;;;;;;;3.44;100.00;93092.63;5110130;28;20053;-71
2022/11/25 05:30:58;;;;;;;3.85;2.47;;;;;;;3.42;100.00;93104.72;5109913;28;20043;-71
2022/11/25 05:33:25;;;;;;;3.63;2.45;;;;;;;3.38;100.00;93100.94;5109587;28;20052;-72
2022/11/25 05:35:58;;;;;;;2.85;2.30;;;;;;;3.27;100.00;93113.03;5109643;28;20047;-71
2022/11/25 05:38:25;;;;;;;2.85;2.20;;;;;;;3.33;100.00;93119.19;5109747;28;20079;-72
2022/11/25 05:40:52;;;;;;;2.70;2.17;;;;;;;3.24;100.00;93126.06;5109582;28;20183;-71
2022/11/25 05:43:19;;;;;;;4.10;2.28;;;;;;;3.13;100.00;93128.97;5109836;28;20052;-71
2022/11/25 05:45:45;;;;;;;9.55;3.53;;;;;;;3.10;100.00;93126.78;5109982;28;20055;-71
2022/11/25 05:48:12;;;;;;;6.28;3.50;;;;;;;3.26;100.00;93131.78;5109827;28;20443;-71
2022/11/25 05:50:39;;;;;;;7.88;3.20;;;;;;;3.33;100.00;93137.75;5109814;28;20052;-71
2022/11/25 05:53:07;;;;;;;6.53;3.25;;;;;;;3.19;100.00;93138.47;5109160;28;20563;-71
2022/11/25 05:55:34;;;;;;;4.95;3.20;;;;;;;3.25;100.00;93144.63;5081004;28;20089;-71
2022/11/25 05:58:01;;;;;;;4.25;3.40;;;;;;;3.29;100.00;93141.59;5109458;28;20055;-71
2022/11/25 06:00:28;;;;;;;3.58;3.22;;;;;;;3.41;100.00;93152.16;5109784;28;20047;-71
2022/11/25 06:02:55;;;;;;;5.50;3.90;;;;;;;3.40;100.00;93154.88;5109413;28;20100;-71
2022/11/25 06:05:22;;;;;;;3.80;2.85;;;;;;;3.40;100.00;93147.25;5109519;28;20518;-71
2022/11/25 06:07:49;;;;;;;3.35;2.60;;;;;;;3.49;100.00;93166.56;5111598;28;20048;-71
2022/11/25 06:10:17;;;;;;;4.40;2.90;;;;;;;3.46;100.00;93174.50;5113274;28;20069;-71
2022/11/25 06:12:44;;;;;;;4.45;3.45;;;;;;;3.57;100.00;93179.22;5113014;28;20047;-71
2022/11/25 06:15:11;;;;;;;3.92;2.80;;;;;;;3.67;100.00;93178.22;5113202;28;20100;-71
2022/11/25 06:17:38;;;;;;;4.43;3.08;;;;;;;3.85;100.00;93176.19;5113019;28;20035;-71
2022/11/25 06:20:07;;;;;;;7.82;4.13;;;;;;;4.00;100.00;93183.91;5113151;28;20459;-72
2022/11/25 06:22:34;;;;;;;5.43;3.70;;;;;;;4.09;100.00;93181.28;5113279;28;20470;-72
2022/11/25 06:25:00;;;;;;;7.30;5.60;;;;;;;4.24;100.00;93186.41;5113368;28;20043;-71
2022/11/25 06:27:29;;;;;;;8.00;6.38;;;;;;;4.23;100.00;93198.34;5112840;28;20108;-71
2022/11/25 06:29:55;;;;;;;7.97;5.35;;;;;;;4.25;100.00;93200.69;5113227;28;20077;-72
2022/11/25 06:32:22;;;;;;;16.52;5.57;;;;;;;4.34;100.00;93191.25;5113159;28;20563;-71
2022/11/25 06:34:49;;;;;;;9.38;4.70;;;;;;;4.37;100.00;93201.09;5113032;28;20043;-72
2022/11/25 06:37:15;;;;;;;10.82;4.63;;;;;;;4.39;100.00;93202.50;5112796;28;20052;-72
2022/11/25 06:39:42;;;;;;;5.70;3.67;;;;;;;4.08;100.00;93170.31;5112803;28;20497;-72
2022/11/25 06:42:09;;;;;;;3.25;2.42;;;;;;;3.97;100.00;93208.84;5112972;28;20051;-71
2022/11/25 06:44:37;;;;;;;3.33;2.80;;;;;;;4.08;100.00;93208.44;5110339;28;20497;-72
2022/11/25 06:47:04;;;;;;;5.35;3.35;;;;;;;4.24;100.00;93205.00;5100817;28;20047;-71
2022/11/25 06:49:31;;;;;;;4.13;3.38;;;;;;;4.40;100.00;93204.09;5112753;28;20044;-71
2022/11/25 06:51:57;;;;;;;5.28;3.70;;;;;;;4.39;100.00;93210.13;5112685;28;20043;-71
2022/11/25 06:54:24;;;;;;;10.30;5.65;;;;;;;4.32;100.00;93214.34;5094072;28;20049;-71
2022/11/25 06:56:52;;;;;;;8.20;5.38;;;;;;;4.48;100.00;93204.97;5102087;28;20051;-71
2022/11/25 06:59:19;;;;;;;8.38;5.68;;;;;;;4.41;100.00;93190.41;5112268;28;20497;-71
2022/11/25 07:01:48;;;;;;;12.93;5.97;;;;;;;4.44;100.00;93179.09;5112110;28;20570;-72
2022/11/25 07:04:14;;;;;;;8.68;5.55;;;;;;;4.60;100.00;93213.00;5112205;28;20059;-71
2022/11/25 07:06:41;;;;;;;7.28;5.10;;;;;;;4.48;100.00;93225.31;5112018;28;20044;-71
2022/11/25 07:09:08;;;;;;;7.53;5.03;;;;;;;4.50;100.00;93219.09;5112358;28;20455;-71
2022/11/25 07:11:36;;;;;;;5.95;4.72;;;;;;;4.34;100.00;93221.78;5112394;28;20105;-72
2022/11/25 07:14:06;;;;;;;8.98;6.30;;;;;;;4.30;100.00;93211.16;5112193;28;20052;-71
2022/11/25 07:16:33;;;;;;;9.70;6.60;;;;;;;4.51;100.00;93223.25;5112355;28;20056;-71
2022/11/25 07:19:02;;;;;;;9.73;6.57;;;;;;;4.50;100.00;93229.28;5111127;28;20048;-71
2022/11/25 07:21:30;;;;;;;8.27;5.90;;;;;;;4.51;100.00;93230.88;5112091;28;20044;-71
2022/11/25 07:23:59;;;;;;;9.82;6.28;;;;;;;4.59;100.00;93239.41;5079431;28;20047;-71
2022/11/25 07:26:28;;;;;;;7.93;5.40;;;;;;;4.67;100.00;93229.13;5110393;28;20051;-71
2022/11/25 07:28:58;;;;;;;6.57;4.35;;;;;;;4.63;100.00;93238.09;5111427;28;20044;-71
2022/11/25 07:31:26;;;;;;;8.27;5.18;;;;;;;4.78;100.00;93226.16;5111795;28;20070;-71
2022/11/25 07:33:54;;;;;;;8.07;5.40;;;;;;;4.99;100.00;93229.81;5111380;28;20474;-71
2022/11/25 07:36:23;;;;;;;4.13;3.35;;;;;;;4.99;100.00;93242.53;5111162;28;20056;-71
2022/11/25 07:38:50;;;;;;;6.03;4.05;;;;;;;4.91;100.00;93247.72;5111441;28;20048;-71
2022/11/25 07:41:19;;;;;;;6.43;3.95;;;;;;;5.04;100.00;93247.09;5111787;28;20436;-71
2022/11/25 07:43:47;;;;;;;6.20;4.32;;;;;;;5.05;100.00;93248.69;5083598;28;20053;-71
2022/11/25 07:46:16;;;;;;;5.00;3.70;;;;;;;4.90;100.00;93241.81;5083527;28;20467;-71
2022/11/25 07:48:44;;;;;;;5.55;4.50;;;;;;;5.13;100.00;93247.81;5111409;28;20113;-71
2022/11/25 07:51:16;;;;;;;5.45;4.30;;;;;;;5.39;100.00;93244.84;5110953;28;20048;-72
2022/11/25 07:53:44;;;;;;;4.20;3.00;;;;;;;5.58;100.00;93251.16;5104621;28;20044;-72
2022/11/25 07:56:12;;;;;;;6.38;3.55;;;;;;;5.65;100.00;93256.31;5090379;28;20047;-72
2022/11/25 07:58:38;;;;;;;5.82;4.40;;;;;;;5.97;100.00;93243.34;5111123;28;20097;-72
2022/11/25 08:01:06;;;;;;;9.23;6.40;;;;;;;6.13;100.00;93261.00;5110830;28;20493;-71
2022/11/25 08:03:34;;;;;;;5.28;2.90;;;;;;;5.98;100.00;93253.34;5110846;28;20131;-72
2022/11/25 08:06:01;;;;;;;5.90;4.22;;;;;;;6.09;100.00;93261.53;5111325;28;20051;-71
2022/11/25 08:08:28;;;;;;;7.50;4.85;;;;;;;5.59;100.00;93270.56;5111100;28;20047;-71
2022/11/25 08:10:57;;;;;;;5.32;3.95;;;;;;;5.52;100.00;93263.78;5111028;28;20442;-72
2022/11/25 08:13:23;;;;;;;12.20;8.57;;;;;;;5.37;99.95;93271.44;5110985;28;20120;-72
2022/11/25 08:15:50;;;;;;;8.38;4.97;;;;;;;4.95;100.00;93254.81;5110829;28;20097;-72
2022/11/25 08:18:17;;;;;;;4.70;3.28;;;;;;;4.96;100.00;93268.34;5091757;28;20417;-71
2022/11/25 08:20:44;;;;;;;6.18;3.40;;;;;;;5.07;100.00;93264.56;5101764;28;20093;-71
2022/11/25 08:23:11;;;;;;;5.90;3.83;;;;;;;5.14;100.00;93275.63;5110671;28;20047;-71
2022/11/25 08:25:40;;;;;;;5.07;3.78;;;;;;;5.14;100.00;93274.88;5110839;28;20048;-71
2022/11/25 08:28:09;;;;;;;4.95;3.85;;;;;;;5.02;99.69;93277.84;5110748;28;20109;-71
2022/11/25 08:30:35;;;;;;;4.55;3.45;;;;;;;4.81;100.00;93281.03;5110328;28;20052;-71
2022/11/25 08:33:04;;;;;;;6.05;3.35;;;;;;;4.67;100.00;93255.38;5110439;28;20059;-71
2022/11/25 08:35:32;;;;;;;4.55;3.35;;;;;;;4.71;100.00;93278.72;5110473;28;20664;-71
2022/11/25 08:37:59;;;;;;;4.43;2.80;;;;;;;4.78;100.00;93291.56;5110470;28;20047;-71
2022/11/25 08:40:25;;;;;;;4.78;3.80;;;;;;;4.79;100.00;93286.31;5110275;28;20566;-71
2022/11/25 08:42:52;;;;;;;5.15;3.30;;;;;;;4.72;100.00;93270.13;5110532;28;20048;-71
2022/11/25 08:45:20;;;;;;;4.60;3.17;;;;;;;4.77;100.00;93278.03;5110425;28;20043;-71
2022/11/25 08:47:47;;;;;;;5.57;4.00;;;;;;;4.87;100.00;93279.56;5110614;28;20096;-71
2022/11/25 08:50:14;;;;;;;8.88;3.88;;;;;;;5.00;100.00;93263.69;5110219;28;20047;-71
2022/11/25 08:52:41;;;;;;;6.68;3.75;;;;;;;5.16;100.00;93276.28;5110464;28;20043;-71
2022/11/25 08:55:09;;;;;;;4.07;3.10;;;;;;;5.02;100.00;93267.66;5081508;28;20113;-70
2022/11/25 08:57:36;;;;;;;6.10;3.42;;;;;;;5.32;100.00;93277.06;5109978;28;20501;-70
2022/11/25 09:00:04;;;;;;;4.78;3.28;;;;;;;5.40;100.00;93276.97;5109980;28;20222;-71
2022/11/25 09:02:32;;;;;;;5.90;4.40;;;;;;;5.41;100.00;93277.78;5110276;27;20043;-71
2022/11/25 09:05:00;;;;;;;5.38;3.85;;;;;;;5.70;100.00;93274.41;5110008;28;20047;-71
2022/11/25 09:07:27;;;;;;;5.18;3.08;;;;;;;5.79;100.00;93276.88;5110124;28;20429;-71
2022/11/25 09:09:53;;;;;;;5.05;3.60;;;;;;;5.79;100.00;93282.75;5110269;28;20156;-71
2022/11/25 09:12:20;;;;;;;8.23;4.20;;;;;;;5.98;100.00;93285.72;5110147;28;20104;-71
2022/11/25 09:14:47;;;;;;;4.97;3.67;;;;;;;6.12;100.00;93286.69;5109824;28;20047;-71
2022/11/25 09:17:15;;;;;;;4.07;2.97;;;;;;;6.14;99.52;93287.28;5110178;28;20124;-71
2022/11/25 09:19:43;;;;;;;4.63;2.95;;;;;;;5.86;99.23;93262.44;5110361;28;20491;-71
2022/11/25 09:22:09;;;;;;;4.40;3.10;;;;;;;5.98;100.00;93268.63;5109883;28;20043;-71
2022/11/25 09:24:36;;;;;;;3.60;2.30;;;;;;;6.05;99.74;93288.34;5109969;28;20039;-71
2022/11/25 09:27:03;;;;;;;5.45;3.13;;;;;;;6.10;100.00;93291.16;5109917;28;20055;-71
2022/11/25 09:29:30;;;;;;;3.80;2.67;;;;;;;6.06;99.58;93277.97;5109962;28;20045;-72
2022/11/25 09:31:56;;;;;;;3.47;2.55;;;;;;;5.72;99.75;93300.53;5109810;28;20039;-71
2022/11/25 09:34:23;;;;;;;4.35;3.15;;;;;;;5.76;100.00;93285.66;5109778;28;20550;-71
2022/11/25 09:36:51;;;;;;;3.75;2.72;;;;;;;5.94;100.00;93279.38;5110029;28;20432;-71
2022/11/25 09:39:19;;;;;;;4.00;2.60;;;;;;;5.82;100.00;93281.59;5109897;28;20051;-71
2022/11/25 09:47:50;;;;;;;3.53;2.83;;;;;;;6.09;100.00;93298.03;5113718;28;20112;-71
2022/11/25 09:50:23;;;;;;;3.42;2.53;;;;;;;6.28;99.63;93304.31;5113690;28;20096;-71
2022/11/25 09:53:03;;;;;;;3.70;2.53;;;;;;;6.05;99.99;93311.28;5114109;28;20051;-71
2022/11/25 09:55:37;;;;;;;4.05;2.70;;;;;;;5.61;99.78;93306.06;5084909;28;20048;-71
2022/11/25 09:58:18;;;;;;;5.60;2.70;;;;;;;5.42;100.00;93294.63;5113229;28;20062;-71
2022/11/25 10:00:48;;;;;;;4.22;3.30;;;;;;;5.44;100.00;93298.59;5113168;28;20075;-71
2022/11/25 10:03:22;;;;;;;3.50;2.30;;;;;;;5.64;100.00;93298.06;5113543;28;20048;-71
2022/11/25 10:05:58;;;;;;;3.13;1.95;;;;;;;5.61;100.00;93303.50;5113633;28;20112;-71
2022/11/25 10:08:29;;;;;;;4.53;2.83;;;;;;;5.56;99.87;93303.25;5113554;28;20052;-71
2022/11/25 10:11:02;;;;;;;3.40;1.92;;;;;;;5.62;100.00;93300.00;5113244;28;20080;-71
2022/11/25 10:13:48;;;;;;;3.03;2.20;;;;;;;5.66;100.00;93298.69;5113243;28;20051;-72
2022/11/25 10:16:30;;;;;;;4.57;2.72;;;;;;;5.72;100.00;93327.75;5113531;28;20052;-72
2022/11/25 10:19:01;;;;;;;3.95;2.70;;;;;;;5.53;100.00;93306.94;5113173;28;20592;-71
2022/11/25 10:21:28;;;;;;;4.32;2.53;;;;;;;5.40;100.00;93297.34;5113444;28;20455;-71
2022/11/25 10:23:57;;;;;;;3.35;2.40;;;;;;;5.66;100.00;93308.88;5113396;28;20433;-71
2022/11/25 10:26:29;;;;;;;3.65;1.83;;;;;;;5.74;99.25;93303.66;5085050;28;20100;-71
2022/11/25 10:29:06;;;;;;;2.63;1.70;;;;;;;5.66;99.94;93310.63;5113052;28;20466;-71
2022/11/25 10:31:35;;;;;;;3.63;1.70;;;;;;;5.68;98.67;93311.22;5113270;28;20405;-71
2022/11/25 10:34:12;;;;;;;3.30;1.95;;;;;;;5.69;100.00;93305.97;5113139;28;20055;-71
2022/11/25 10:36:42;;;;;;;4.35;2.40;;;;;;;5.77;100.00;93276.22;5113137;28;20047;-71
2022/11/25 10:39:17;;;;;;;3.95;2.35;;;;;;;6.06;99.20;93312.91;5113138;28;20047;-71
2022/11/25 10:41:50;;;;;;;4.20;2.47;;;;;;;6.05;99.20;93304.44;5112319;27;20047;-71
2022/11/25 10:44:24;;;;;;;3.67;2.20;;;;;;;5.84;98.19;93323.00;5112748;28;20047;-71
2022/11/25 10:47:04;;;;;;;4.53;2.38;;;;;;;5.62;98.86;93323.69;5085991;28;20043;-71
2022/11/25 10:49:38;;;;;;;3.47;2.30;;;;;;;5.70;99.61;93322.06;5112714;28;20451;-71
2022/11/25 10:52:10;;;;;;;3.47;2.63;;;;;;;5.63;98.24;93319.41;5113124;28;20051;-71
2022/11/25 10:54:38;;;;;;;3.53;2.47;;;;;;;5.58;100.00;93319.16;5090823;28;20453;-71
2022/11/25 10:57:17;;;;;;;3.47;2.42;;;;;;;5.50;100.00;93316.69;5106170;28;20100;-71
2022/11/25 11:00:02;;;;;;;3.60;2.67;;;;;;;5.47;100.00;93317.84;5112549;28;20060;-71
2022/11/25 11:02:37;;;;;;;3.80;2.80;;;;;;;5.87;100.00;93315.78;5112506;28;20382;-71
2022/11/25 11:05:19;;;;;;;5.30;2.58;;;;;;;5.77;100.00;93314.47;5112405;28;20054;-71
2022/11/25 11:07:49;;;;;;;2.90;1.92;;;;;;;5.81;100.00;93324.16;5111889;28;20043;-71
2022/11/25 11:10:19;;;;;;;8.90;3.33;;;;;;;5.88;100.00;93314.81;5112203;28;20059;-71
2022/11/25 11:12:58;;;;;;;5.50;3.45;;;;;;;5.98;100.00;93306.88;5112003;28;20489;-71
2022/11/25 11:15:30;;;;;;;10.70;4.20;;;;;;;6.10;100.00;93319.19;5111896;28;20498;-71
2022/11/25 11:17:58;;;;;;;7.53;3.88;;;;;;;6.05;100.00;93324.03;5112374;28;20044;-72
2022/11/25 11:20:27;;;;;;;4.50;3.00;;;;;;;6.07;100.00;93324.69;5112037;28;20111;-71
2022/11/25 11:22:57;;;;;;;4.82;2.85;;;;;;;5.84;100.00;93321.22;5111953;28;20040;-71
2022/11/25 11:25:31;;;;;;;3.58;2.60;;;;;;;5.76;100.00;93316.25;5111720;28;20044;-71
2022/11/25 11:27:58;;;;;;;6.60;3.08;;;;;;;5.55;100.00;93322.06;5106766;28;20040;-71
2022/11/25 11:30:38;;;;;;;5.47;3.55;;;;;;;5.42;100.00;93322.66;5103078;28;20047;-71
2022/11/25 11:33:30;;;;;;;6.45;4.25;;;;;;;5.25;100.00;93329.66;5110882;28;20482;-71
2022/11/25 11:36:09;;;;;;;4.03;3.00;;;;;;;4.70;100.00;93245.81;5111506;28;20051;-71
2022/11/25 11:38:45;;;;;;;5.30;3.20;;;;;;;5.13;100.00;93335.19;5111962;28;20055;-71
2022/11/25 11:41:22;;;;;;;9.02;4.70;;;;;;;5.25;100.00;93335.56;5087866;28;20044;-71
2022/11/25 11:43:59;;;;;;;4.63;2.88;;;;;;;5.07;100.00;93331.56;5111455;28;20052;-71
2022/11/25 11:46:46;;;;;;;6.65;3.40;;;;;;;5.12;100.00;93338.69;5097170;28;20093;-71
2022/11/25 11:49:33;;;;;;;6.10;3.90;;;;;;;5.21;100.00;93339.41;5111392;28;20104;-71
2022/11/25 11:52:08;;;;;;;5.70;4.40;;;;;;;5.08;100.00;93335.69;5111600;28;20136;-71
2022/11/25 11:54:36;;;;;;;5.80;3.65;;;;;;;4.95;100.00;93327.84;5090197;28;21323;-71
2022/11/25 11:57:07;;;;;;;5.65;4.35;;;;;;;5.03;100.00;93340.50;5104262;28;20052;-71
2022/11/25 11:59:47;;;;;;;4.53;3.35;;;;;;;4.82;100.00;93336.84;5111160;28;20052;-71